sensor_id;sensor_type;location;lat;lon;timestamp;P1;durP1;ratioP1;P2;durP2;ratioP2
3443;SDS011;1736;52.068;6.968;2023-04-25T00:02:15;4.90;;;3.47;;
3443;SDS011;1736;52.068;6.968;2023-04-25T00:04:41;6.40;;;3.60;;
3443;SDS011;1736;52.068;6.968;2023-04-25T00:07:08;7.70;;;4.20;;
3443;SDS011;1736;52.068;6.968;2023-04-25T00:09:35;5.20;;;4.10;;
3443;SDS011;1736;52.068;6.968;2023-04-25T00:12:02;6.47;;;3.70;;
3443;SDS011;1736;52.068;6.968;2023-04-25T00:14:29;7.00;;;3.93;;
3443;SDS011;1736;52.068;6.968;2023-04-25T00:16:56;6.63;;;3.17;;
3443;SDS011;1736;52.068;6.968;2023-04-25T00:19:24;12.50;;;4.60;;
3443;SDS011;1736;52.068;6.968;2023-04-25T00:21:51;12.70;;;4.33;;
3443;SDS011;1736;52.068;6.968;2023-04-25T00:24:18;11.00;;;5.30;;
3443;SDS011;1736;52.068;6.968;2023-04-25T00:26:45;13.60;;;5.70;;
3443;SDS011;1736;52.068;6.968;2023-04-25T00:29:12;15.77;;;7.50;;
3443;SDS011;1736;52.068;6.968;2023-04-25T00:31:39;12.23;;;7.60;;
3443;SDS011;1736;52.068;6.968;2023-04-25T00:34:07;16.73;;;7.20;;
3443;SDS011;1736;52.068;6.968;2023-04-25T00:36:34;16.17;;;7.33;;
3443;SDS011;1736;52.068;6.968;2023-04-25T00:39:01;18.33;;;6.80;;
3443;SDS011;1736;52.068;6.968;2023-04-25T00:41:27;17.93;;;7.40;;
3443;SDS011;1736;52.068;6.968;2023-04-25T00:43:55;12.57;;;8.10;;
3443;SDS011;1736;52.068;6.968;2023-04-25T00:46:22;23.37;;;8.53;;
3443;SDS011;1736;52.068;6.968;2023-04-25T00:48:49;17.57;;;6.20;;
3443;SDS011;1736;52.068;6.968;2023-04-25T00:51:19;15.23;;;5.23;;
3443;SDS011;1736;52.068;6.968;2023-04-25T00:53:46;21.80;;;7.47;;
3443;SDS011;1736;52.068;6.968;2023-04-25T00:56:14;23.43;;;5.87;;
3443;SDS011;1736;52.068;6.968;2023-04-25T00:58:42;22.67;;;6.27;;
3443;SDS011;1736;52.068;6.968;2023-04-25T01:01:08;18.80;;;7.70;;
3443;SDS011;1736;52.068;6.968;2023-04-25T01:03:37;18.77;;;6.53;;
3443;SDS011;1736;52.068;6.968;2023-04-25T01:06:06;28.43;;;6.50;;
3443;SDS011;1736;52.068;6.968;2023-04-25T01:08:36;13.73;;;5.73;;
3443;SDS011;1736;52.068;6.968;2023-04-25T01:11:03;19.87;;;9.23;;
3443;SDS011;1736;52.068;6.968;2023-04-25T01:13:30;14.40;;;7.77;;
3443;SDS011;1736;52.068;6.968;2023-04-25T01:15:57;19.37;;;8.30;;
3443;SDS011;1736;52.068;6.968;2023-04-25T01:18:24;15.40;;;7.10;;
3443;SDS011;1736;52.068;6.968;2023-04-25T01:20:51;18.93;;;8.00;;
3443;SDS011;1736;52.068;6.968;2023-04-25T01:23:19;17.70;;;7.57;;
3443;SDS011;1736;52.068;6.968;2023-04-25T01:25:47;17.37;;;6.80;;
3443;SDS011;1736;52.068;6.968;2023-04-25T01:28:14;23.47;;;6.97;;
3443;SDS011;1736;52.068;6.968;2023-04-25T01:30:42;18.70;;;6.43;;
3443;SDS011;1736;52.068;6.968;2023-04-25T01:33:09;20.47;;;6.37;;
3443;SDS011;1736;52.068;6.968;2023-04-25T01:35:37;16.83;;;5.80;;
3443;SDS011;1736;52.068;6.968;2023-04-25T01:38:03;12.80;;;7.00;;
3443;SDS011;1736;52.068;6.968;2023-04-25T01:40:31;22.93;;;8.23;;
3443;SDS011;1736;52.068;6.968;2023-04-25T01:43:00;21.17;;;7.70;;
3443;SDS011;1736;52.068;6.968;2023-04-25T01:45:26;18.10;;;7.17;;
3443;SDS011;1736;52.068;6.968;2023-04-25T01:47:53;19.70;;;6.77;;
3443;SDS011;1736;52.068;6.968;2023-04-25T01:50:20;24.17;;;7.63;;
3443;SDS011;1736;52.068;6.968;2023-04-25T01:52:46;19.73;;;6.93;;
3443;SDS011;1736;52.068;6.968;2023-04-25T01:55:13;17.10;;;5.77;;
3443;SDS011;1736;52.068;6.968;2023-04-25T01:57:41;27.37;;;6.73;;
3443;SDS011;1736;52.068;6.968;2023-04-25T02:00:08;18.20;;;5.63;;
3443;SDS011;1736;52.068;6.968;2023-04-25T02:02:35;23.37;;;7.57;;
3443;SDS011;1736;52.068;6.968;2023-04-25T02:05:02;18.43;;;5.60;;
3443;SDS011;1736;52.068;6.968;2023-04-25T02:07:28;21.30;;;5.70;;
3443;SDS011;1736;52.068;6.968;2023-04-25T02:09:55;14.07;;;5.60;;
3443;SDS011;1736;52.068;6.968;2023-04-25T02:12:21;15.83;;;5.67;;
3443;SDS011;1736;52.068;6.968;2023-04-25T02:14:49;14.87;;;5.67;;
3443;SDS011;1736;52.068;6.968;2023-04-25T02:17:16;20.40;;;5.67;;
3443;SDS011;1736;52.068;6.968;2023-04-25T02:19:42;20.53;;;6.70;;
3443;SDS011;1736;52.068;6.968;2023-04-25T02:22:17;15.53;;;6.20;;
3443;SDS011;1736;52.068;6.968;2023-04-25T02:24:43;12.07;;;5.40;;
3443;SDS011;1736;52.068;6.968;2023-04-25T02:27:10;15.57;;;4.80;;
3443;SDS011;1736;52.068;6.968;2023-04-25T02:29:36;14.20;;;5.30;;
3443;SDS011;1736;52.068;6.968;2023-04-25T02:32:04;20.07;;;7.00;;
3443;SDS011;1736;52.068;6.968;2023-04-25T02:34:31;23.43;;;8.00;;
3443;SDS011;1736;52.068;6.968;2023-04-25T02:36:57;18.87;;;6.20;;
3443;SDS011;1736;52.068;6.968;2023-04-25T02:39:24;22.90;;;6.83;;
3443;SDS011;1736;52.068;6.968;2023-04-25T02:41:52;17.97;;;5.27;;
3443;SDS011;1736;52.068;6.968;2023-04-25T02:44:18;20.33;;;4.87;;
3443;SDS011;1736;52.068;6.968;2023-04-25T02:46:45;17.55;;;5.70;;
3443;SDS011;1736;52.068;6.968;2023-04-25T02:49:13;12.83;;;5.00;;
3443;SDS011;1736;52.068;6.968;2023-04-25T02:51:39;11.93;;;4.20;;
3443;SDS011;1736;52.068;6.968;2023-04-25T02:54:06;13.73;;;5.00;;
3443;SDS011;1736;52.068;6.968;2023-04-25T02:56:32;13.73;;;4.60;;
3443;SDS011;1736;52.068;6.968;2023-04-25T02:58:59;21.90;;;4.97;;
3443;SDS011;1736;52.068;6.968;2023-04-25T03:01:25;10.10;;;4.40;;
3443;SDS011;1736;52.068;6.968;2023-04-25T03:03:52;12.10;;;4.43;;
3443;SDS011;1736;52.068;6.968;2023-04-25T03:06:20;22.63;;;4.63;;
3443;SDS011;1736;52.068;6.968;2023-04-25T03:08:46;12.83;;;4.67;;
3443;SDS011;1736;52.068;6.968;2023-04-25T03:11:13;15.77;;;4.77;;
3443;SDS011;1736;52.068;6.968;2023-04-25T03:13:39;14.10;;;4.93;;
3443;SDS011;1736;52.068;6.968;2023-04-25T03:16:06;18.83;;;6.00;;
3443;SDS011;1736;52.068;6.968;2023-04-25T03:18:32;10.30;;;4.33;;
3443;SDS011;1736;52.068;6.968;2023-04-25T03:20:59;13.33;;;5.07;;
3443;SDS011;1736;52.068;6.968;2023-04-25T03:23:27;13.00;;;4.33;;
3443;SDS011;1736;52.068;6.968;2023-04-25T03:25:54;12.67;;;5.20;;
3443;SDS011;1736;52.068;6.968;2023-04-25T03:28:20;10.83;;;5.03;;
3443;SDS011;1736;52.068;6.968;2023-04-25T03:30:47;19.60;;;5.10;;
3443;SDS011;1736;52.068;6.968;2023-04-25T03:33:13;14.60;;;4.90;;
3443;SDS011;1736;52.068;6.968;2023-04-25T03:35:40;19.30;;;5.30;;
3443;SDS011;1736;52.068;6.968;2023-04-25T03:38:07;15.50;;;4.67;;
3443;SDS011;1736;52.068;6.968;2023-04-25T03:40:35;23.20;;;5.10;;
3443;SDS011;1736;52.068;6.968;2023-04-25T03:43:02;10.80;;;4.80;;
3443;SDS011;1736;52.068;6.968;2023-04-25T03:45:28;11.30;;;4.23;;
3443;SDS011;1736;52.068;6.968;2023-04-25T03:47:55;12.30;;;5.30;;
3443;SDS011;1736;52.068;6.968;2023-04-25T03:50:21;7.93;;;4.43;;
3443;SDS011;1736;52.068;6.968;2023-04-25T03:52:48;19.50;;;9.40;;
3443;SDS011;1736;52.068;6.968;2023-04-25T03:55:14;20.17;;;9.60;;
3443;SDS011;1736;52.068;6.968;2023-04-25T03:57:43;13.13;;;8.50;;
3443;SDS011;1736;52.068;6.968;2023-04-25T04:00:10;18.80;;;11.17;;
3443;SDS011;1736;52.068;6.968;2023-04-25T04:02:37;16.20;;;7.53;;
3443;SDS011;1736;52.068;6.968;2023-04-25T04:05:04;9.43;;;5.10;;
3443;SDS011;1736;52.068;6.968;2023-04-25T04:07:31;15.23;;;5.23;;
3443;SDS011;1736;52.068;6.968;2023-04-25T04:09:58;17.23;;;7.27;;
3443;SDS011;1736;52.068;6.968;2023-04-25T04:12:25;16.87;;;7.37;;
3443;SDS011;1736;52.068;6.968;2023-04-25T04:14:53;50.27;;;22.10;;
3443;SDS011;1736;52.068;6.968;2023-04-25T04:17:19;41.63;;;20.53;;
3443;SDS011;1736;52.068;6.968;2023-04-25T04:19:46;42.77;;;22.40;;
3443;SDS011;1736;52.068;6.968;2023-04-25T04:22:12;35.77;;;21.53;;
3443;SDS011;1736;52.068;6.968;2023-04-25T04:24:39;46.13;;;31.73;;
3443;SDS011;1736;52.068;6.968;2023-04-25T04:27:08;27.90;;;17.60;;
3443;SDS011;1736;52.068;6.968;2023-04-25T04:29:35;56.70;;;37.20;;
3443;SDS011;1736;52.068;6.968;2023-04-25T04:32:03;46.93;;;30.03;;
3443;SDS011;1736;52.068;6.968;2023-04-25T04:34:30;23.80;;;14.33;;
3443;SDS011;1736;52.068;6.968;2023-04-25T04:36:57;19.57;;;11.20;;
3443;SDS011;1736;52.068;6.968;2023-04-25T04:39:23;22.87;;;13.77;;
3443;SDS011;1736;52.068;6.968;2023-04-25T04:41:50;17.87;;;9.00;;
3443;SDS011;1736;52.068;6.968;2023-04-25T04:44:16;10.67;;;5.53;;
3443;SDS011;1736;52.068;6.968;2023-04-25T04:46:43;12.83;;;5.13;;
3443;SDS011;1736;52.068;6.968;2023-04-25T04:49:11;13.30;;;5.00;;
3443;SDS011;1736;52.068;6.968;2023-04-25T04:51:38;9.90;;;4.93;;
3443;SDS011;1736;52.068;6.968;2023-04-25T04:54:05;13.43;;;5.67;;
3443;SDS011;1736;52.068;6.968;2023-04-25T04:56:32;13.63;;;4.10;;
3443;SDS011;1736;52.068;6.968;2023-04-25T04:58:58;11.80;;;5.03;;
3443;SDS011;1736;52.068;6.968;2023-04-25T05:01:26;12.33;;;4.30;;
3443;SDS011;1736;52.068;6.968;2023-04-25T05:03:54;10.77;;;4.40;;
3443;SDS011;1736;52.068;6.968;2023-04-25T05:06:26;12.63;;;4.80;;
3443;SDS011;1736;52.068;6.968;2023-04-25T05:08:53;16.73;;;5.67;;
3443;SDS011;1736;52.068;6.968;2023-04-25T05:11:20;14.03;;;4.77;;
3443;SDS011;1736;52.068;6.968;2023-04-25T05:13:47;11.47;;;5.20;;
3443;SDS011;1736;52.068;6.968;2023-04-25T05:16:13;9.23;;;4.53;;
3443;SDS011;1736;52.068;6.968;2023-04-25T05:18:40;14.63;;;4.47;;
3443;SDS011;1736;52.068;6.968;2023-04-25T05:21:07;11.10;;;5.17;;
3443;SDS011;1736;52.068;6.968;2023-04-25T05:23:34;16.20;;;4.70;;
3443;SDS011;1736;52.068;6.968;2023-04-25T05:26:01;10.80;;;3.93;;
3443;SDS011;1736;52.068;6.968;2023-04-25T05:28:27;13.60;;;4.33;;
3443;SDS011;1736;52.068;6.968;2023-04-25T05:30:54;9.30;;;4.23;;
3443;SDS011;1736;52.068;6.968;2023-04-25T05:33:21;10.03;;;4.27;;
3443;SDS011;1736;52.068;6.968;2023-04-25T05:35:47;11.87;;;4.57;;
3443;SDS011;1736;52.068;6.968;2023-04-25T05:38:20;14.60;;;4.17;;
3443;SDS011;1736;52.068;6.968;2023-04-25T05:40:48;10.70;;;3.83;;
3443;SDS011;1736;52.068;6.968;2023-04-25T05:43:14;10.30;;;3.67;;
3443;SDS011;1736;52.068;6.968;2023-04-25T05:45:41;14.73;;;4.20;;
3443;SDS011;1736;52.068;6.968;2023-04-25T05:48:07;6.03;;;3.40;;
3443;SDS011;1736;52.068;6.968;2023-04-25T05:50:34;12.40;;;4.20;;
3443;SDS011;1736;52.068;6.968;2023-04-25T05:53:00;13.37;;;5.20;;
3443;SDS011;1736;52.068;6.968;2023-04-25T05:55:27;17.73;;;4.50;;
3443;SDS011;1736;52.068;6.968;2023-04-25T05:57:55;15.83;;;4.17;;
3443;SDS011;1736;52.068;6.968;2023-04-25T06:00:21;9.77;;;4.10;;
3443;SDS011;1736;52.068;6.968;2023-04-25T06:02:48;13.13;;;4.37;;
3443;SDS011;1736;52.068;6.968;2023-04-25T06:05:15;17.87;;;4.20;;
3443;SDS011;1736;52.068;6.968;2023-04-25T06:07:42;13.17;;;4.23;;
3443;SDS011;1736;52.068;6.968;2023-04-25T06:10:08;13.00;;;4.80;;
3443;SDS011;1736;52.068;6.968;2023-04-25T06:12:35;12.17;;;3.50;;
3443;SDS011;1736;52.068;6.968;2023-04-25T06:15:05;11.27;;;3.97;;
3443;SDS011;1736;52.068;6.968;2023-04-25T06:17:32;6.70;;;3.80;;
3443;SDS011;1736;52.068;6.968;2023-04-25T06:19:59;8.03;;;4.07;;
3443;SDS011;1736;52.068;6.968;2023-04-25T06:22:26;8.00;;;3.50;;
3443;SDS011;1736;52.068;6.968;2023-04-25T06:24:53;11.73;;;4.67;;
3443;SDS011;1736;52.068;6.968;2023-04-25T06:27:22;9.63;;;3.73;;
3443;SDS011;1736;52.068;6.968;2023-04-25T06:29:48;9.03;;;3.30;;
3443;SDS011;1736;52.068;6.968;2023-04-25T06:32:16;11.13;;;4.17;;
3443;SDS011;1736;52.068;6.968;2023-04-25T06:34:43;11.20;;;3.10;;
3443;SDS011;1736;52.068;6.968;2023-04-25T06:37:10;9.63;;;3.53;;
3443;SDS011;1736;52.068;6.968;2023-04-25T06:39:37;8.73;;;3.20;;
3443;SDS011;1736;52.068;6.968;2023-04-25T06:42:03;10.73;;;4.10;;
3443;SDS011;1736;52.068;6.968;2023-04-25T06:44:30;16.77;;;3.70;;
3443;SDS011;1736;52.068;6.968;2023-04-25T06:46:56;11.73;;;4.17;;
3443;SDS011;1736;52.068;6.968;2023-04-25T06:49:24;11.30;;;5.37;;
3443;SDS011;1736;52.068;6.968;2023-04-25T06:51:50;12.37;;;6.07;;
3443;SDS011;1736;52.068;6.968;2023-04-25T06:54:17;9.83;;;3.33;;
3443;SDS011;1736;52.068;6.968;2023-04-25T06:56:43;19.50;;;8.40;;
3443;SDS011;1736;52.068;6.968;2023-04-25T06:59:10;7.10;;;3.07;;
3443;SDS011;1736;52.068;6.968;2023-04-25T07:01:37;9.83;;;3.07;;
3443;SDS011;1736;52.068;6.968;2023-04-25T07:04:03;23.37;;;3.10;;
3443;SDS011;1736;52.068;6.968;2023-04-25T07:06:31;10.30;;;2.77;;
3443;SDS011;1736;52.068;6.968;2023-04-25T07:08:57;6.20;;;2.70;;
3443;SDS011;1736;52.068;6.968;2023-04-25T07:11:24;5.83;;;3.17;;
3443;SDS011;1736;52.068;6.968;2023-04-25T07:13:50;13.50;;;3.30;;
3443;SDS011;1736;52.068;6.968;2023-04-25T07:16:17;14.13;;;4.27;;
3443;SDS011;1736;52.068;6.968;2023-04-25T07:18:43;7.33;;;2.90;;
3443;SDS011;1736;52.068;6.968;2023-04-25T07:21:10;17.97;;;4.00;;
3443;SDS011;1736;52.068;6.968;2023-04-25T07:23:38;8.60;;;2.90;;
3443;SDS011;1736;52.068;6.968;2023-04-25T07:26:05;9.63;;;2.90;;
3443;SDS011;1736;52.068;6.968;2023-04-25T07:28:32;14.50;;;4.30;;
3443;SDS011;1736;52.068;6.968;2023-04-25T07:30:58;6.97;;;2.83;;
3443;SDS011;1736;52.068;6.968;2023-04-25T07:33:25;10.97;;;3.23;;
3443;SDS011;1736;52.068;6.968;2023-04-25T07:35:51;11.63;;;3.30;;
3443;SDS011;1736;52.068;6.968;2023-04-25T07:38:18;9.50;;;2.60;;
3443;SDS011;1736;52.068;6.968;2023-04-25T07:40:46;6.33;;;3.10;;
3443;SDS011;1736;52.068;6.968;2023-04-25T07:43:20;7.63;;;3.07;;
3443;SDS011;1736;52.068;6.968;2023-04-25T07:45:46;11.90;;;3.50;;
3443;SDS011;1736;52.068;6.968;2023-04-25T07:48:16;10.00;;;2.80;;
3443;SDS011;1736;52.068;6.968;2023-04-25T07:50:43;7.73;;;3.13;;
3443;SDS011;1736;52.068;6.968;2023-04-25T07:53:10;12.10;;;2.83;;
3443;SDS011;1736;52.068;6.968;2023-04-25T07:55:36;12.67;;;3.10;;
3443;SDS011;1736;52.068;6.968;2023-04-25T07:58:06;6.43;;;2.80;;
3443;SDS011;1736;52.068;6.968;2023-04-25T08:00:33;8.83;;;2.90;;
3443;SDS011;1736;52.068;6.968;2023-04-25T08:02:59;11.47;;;2.80;;
3443;SDS011;1736;52.068;6.968;2023-04-25T08:05:26;5.20;;;2.43;;
3443;SDS011;1736;52.068;6.968;2023-04-25T08:07:52;8.13;;;3.20;;
3443;SDS011;1736;52.068;6.968;2023-04-25T08:10:19;11.17;;;2.50;;
3443;SDS011;1736;52.068;6.968;2023-04-25T08:12:47;7.80;;;2.77;;
3443;SDS011;1736;52.068;6.968;2023-04-25T08:15:15;12.37;;;6.63;;
3443;SDS011;1736;52.068;6.968;2023-04-25T08:17:41;8.90;;;2.80;;
3443;SDS011;1736;52.068;6.968;2023-04-25T08:20:09;4.97;;;2.67;;
3443;SDS011;1736;52.068;6.968;2023-04-25T08:22:36;5.60;;;2.10;;
3443;SDS011;1736;52.068;6.968;2023-04-25T08:25:03;5.77;;;2.00;;
3443;SDS011;1736;52.068;6.968;2023-04-25T08:27:30;7.73;;;3.10;;
3443;SDS011;1736;52.068;6.968;2023-04-25T08:29:57;12.93;;;3.23;;
3443;SDS011;1736;52.068;6.968;2023-04-25T08:32:25;7.47;;;3.20;;
3443;SDS011;1736;52.068;6.968;2023-04-25T08:34:51;12.27;;;2.60;;
3443;SDS011;1736;52.068;6.968;2023-04-25T08:37:19;10.10;;;2.30;;
3443;SDS011;1736;52.068;6.968;2023-04-25T08:39:45;3.10;;;2.30;;
3443;SDS011;1736;52.068;6.968;2023-04-25T08:42:13;4.40;;;2.40;;
3443;SDS011;1736;52.068;6.968;2023-04-25T08:44:41;11.53;;;2.40;;
3443;SDS011;1736;52.068;6.968;2023-04-25T08:47:07;6.90;;;1.90;;
3443;SDS011;1736;52.068;6.968;2023-04-25T08:49:35;3.53;;;1.80;;
3443;SDS011;1736;52.068;6.968;2023-04-25T08:52:04;3.20;;;1.90;;
3443;SDS011;1736;52.068;6.968;2023-04-25T08:54:31;4.67;;;1.70;;
3443;SDS011;1736;52.068;6.968;2023-04-25T08:57:00;4.13;;;2.20;;
3443;SDS011;1736;52.068;6.968;2023-04-25T08:59:28;7.60;;;2.10;;
3443;SDS011;1736;52.068;6.968;2023-04-25T09:01:55;5.63;;;2.60;;
3443;SDS011;1736;52.068;6.968;2023-04-25T09:04:23;5.17;;;1.80;;
3443;SDS011;1736;52.068;6.968;2023-04-25T09:06:51;4.93;;;2.50;;
3443;SDS011;1736;52.068;6.968;2023-04-25T09:09:17;6.10;;;2.00;;
3443;SDS011;1736;52.068;6.968;2023-04-25T09:11:44;8.67;;;1.60;;
3443;SDS011;1736;52.068;6.968;2023-04-25T09:14:11;2.97;;;1.70;;
3443;SDS011;1736;52.068;6.968;2023-04-25T09:19:28;4.93;;;1.60;;
3443;SDS011;1736;52.068;6.968;2023-04-25T09:21:57;2.47;;;1.70;;
3443;SDS011;1736;52.068;6.968;2023-04-25T09:24:35;3.37;;;1.70;;
3443;SDS011;1736;52.068;6.968;2023-04-25T09:27:03;7.27;;;2.10;;
3443;SDS011;1736;52.068;6.968;2023-04-25T09:29:31;4.67;;;1.67;;
3443;SDS011;1736;52.068;6.968;2023-04-25T09:32:11;2.10;;;1.67;;
3443;SDS011;1736;52.068;6.968;2023-04-25T09:34:39;2.83;;;1.50;;
3443;SDS011;1736;52.068;6.968;2023-04-25T09:37:08;4.20;;;2.07;;
3443;SDS011;1736;52.068;6.968;2023-04-25T09:39:35;11.13;;;2.37;;
3443;SDS011;1736;52.068;6.968;2023-04-25T09:42:03;3.13;;;1.70;;
3443;SDS011;1736;52.068;6.968;2023-04-25T09:44:29;7.47;;;2.13;;
3443;SDS011;1736;52.068;6.968;2023-04-25T09:46:56;3.80;;;2.13;;
3443;SDS011;1736;52.068;6.968;2023-04-25T09:49:24;8.13;;;2.17;;
3443;SDS011;1736;52.068;6.968;2023-04-25T09:51:54;4.20;;;1.70;;
3443;SDS011;1736;52.068;6.968;2023-04-25T09:54:23;7.10;;;1.90;;
3443;SDS011;1736;52.068;6.968;2023-04-25T09:56:51;2.70;;;1.97;;
3443;SDS011;1736;52.068;6.968;2023-04-25T09:59:18;2.90;;;1.60;;
3443;SDS011;1736;52.068;6.968;2023-04-25T10:01:46;4.73;;;2.20;;
3443;SDS011;1736;52.068;6.968;2023-04-25T10:04:15;3.73;;;1.70;;
3443;SDS011;1736;52.068;6.968;2023-04-25T10:06:45;3.57;;;1.70;;
3443;SDS011;1736;52.068;6.968;2023-04-25T10:09:14;2.70;;;1.80;;
3443;SDS011;1736;52.068;6.968;2023-04-25T10:11:44;2.90;;;1.90;;
3443;SDS011;1736;52.068;6.968;2023-04-25T10:14:12;5.80;;;1.97;;
3443;SDS011;1736;52.068;6.968;2023-04-25T10:16:40;14.53;;;2.20;;
3443;SDS011;1736;52.068;6.968;2023-04-25T10:19:08;17.30;;;5.80;;
3443;SDS011;1736;52.068;6.968;2023-04-25T10:21:35;8.63;;;3.03;;
3443;SDS011;1736;52.068;6.968;2023-04-25T10:24:10;4.93;;;2.17;;
3443;SDS011;1736;52.068;6.968;2023-04-25T10:26:38;19.53;;;5.13;;
3443;SDS011;1736;52.068;6.968;2023-04-25T10:29:06;20.67;;;7.17;;
3443;SDS011;1736;52.068;6.968;2023-04-25T10:31:32;11.53;;;3.83;;
3443;SDS011;1736;52.068;6.968;2023-04-25T10:33:59;6.10;;;2.23;;
3443;SDS011;1736;52.068;6.968;2023-04-25T10:36:26;6.00;;;1.90;;
3443;SDS011;1736;52.068;6.968;2023-04-25T10:38:58;9.50;;;2.17;;
3443;SDS011;1736;52.068;6.968;2023-04-25T10:41:31;8.80;;;2.27;;
3443;SDS011;1736;52.068;6.968;2023-04-25T10:44:15;3.07;;;2.00;;
3443;SDS011;1736;52.068;6.968;2023-04-25T10:46:42;2.40;;;1.87;;
3443;SDS011;1736;52.068;6.968;2023-04-25T10:49:28;3.70;;;1.60;;
3443;SDS011;1736;52.068;6.968;2023-04-25T10:52:10;4.73;;;2.60;;
3443;SDS011;1736;52.068;6.968;2023-04-25T10:54:47;5.70;;;2.30;;
3443;SDS011;1736;52.068;6.968;2023-04-25T10:57:27;5.43;;;2.37;;
3443;SDS011;1736;52.068;6.968;2023-04-25T11:00:00;8.97;;;2.10;;
3443;SDS011;1736;52.068;6.968;2023-04-25T11:02:31;9.80;;;3.03;;
3443;SDS011;1736;52.068;6.968;2023-04-25T11:04:58;4.00;;;2.03;;
3443;SDS011;1736;52.068;6.968;2023-04-25T11:07:26;3.73;;;2.23;;
3443;SDS011;1736;52.068;6.968;2023-04-25T11:10:00;4.03;;;1.90;;
3443;SDS011;1736;52.068;6.968;2023-04-25T11:12:29;4.87;;;2.50;;
3443;SDS011;1736;52.068;6.968;2023-04-25T11:15:02;2.30;;;2.10;;
3443;SDS011;1736;52.068;6.968;2023-04-25T11:17:30;3.13;;;1.90;;
3443;SDS011;1736;52.068;6.968;2023-04-25T11:19:58;5.83;;;2.37;;
3443;SDS011;1736;52.068;6.968;2023-04-25T11:22:25;10.97;;;2.40;;
3443;SDS011;1736;52.068;6.968;2023-04-25T11:24:55;4.20;;;2.60;;
3443;SDS011;1736;52.068;6.968;2023-04-25T11:27:21;5.27;;;3.60;;
3443;SDS011;1736;52.068;6.968;2023-04-25T11:29:49;6.90;;;3.63;;
3443;SDS011;1736;52.068;6.968;2023-04-25T11:32:17;4.03;;;2.60;;
3443;SDS011;1736;52.068;6.968;2023-04-25T11:34:45;3.23;;;2.10;;
3443;SDS011;1736;52.068;6.968;2023-04-25T11:37:12;3.90;;;3.07;;
3443;SDS011;1736;52.068;6.968;2023-04-25T11:39:42;6.17;;;3.00;;
3443;SDS011;1736;52.068;6.968;2023-04-25T11:42:10;5.03;;;2.63;;
3443;SDS011;1736;52.068;6.968;2023-04-25T11:44:37;4.10;;;2.00;;
3443;SDS011;1736;52.068;6.968;2023-04-25T11:47:04;2.30;;;1.57;;
3443;SDS011;1736;52.068;6.968;2023-04-25T11:49:32;5.90;;;2.23;;
3443;SDS011;1736;52.068;6.968;2023-04-25T11:52:00;2.90;;;2.57;;
3443;SDS011;1736;52.068;6.968;2023-04-25T11:54:26;2.53;;;2.33;;
3443;SDS011;1736;52.068;6.968;2023-04-25T11:56:53;4.20;;;2.90;;
3443;SDS011;1736;52.068;6.968;2023-04-25T11:59:22;3.33;;;2.60;;
3443;SDS011;1736;52.068;6.968;2023-04-25T12:01:50;4.97;;;3.00;;
3443;SDS011;1736;52.068;6.968;2023-04-25T12:04:17;3.23;;;2.30;;
3443;SDS011;1736;52.068;6.968;2023-04-25T12:06:46;8.00;;;1.67;;
3443;SDS011;1736;52.068;6.968;2023-04-25T12:09:15;4.37;;;1.30;;
3443;SDS011;1736;52.068;6.968;2023-04-25T12:11:44;1.60;;;1.50;;
3443;SDS011;1736;52.068;6.968;2023-04-25T12:14:11;1.40;;;1.30;;
3443;SDS011;1736;52.068;6.968;2023-04-25T12:16:41;5.80;;;1.30;;
3443;SDS011;1736;52.068;6.968;2023-04-25T12:19:08;5.57;;;1.43;;
3443;SDS011;1736;52.068;6.968;2023-04-25T12:21:35;2.63;;;1.40;;
3443;SDS011;1736;52.068;6.968;2023-04-25T12:24:14;1.87;;;1.70;;
3443;SDS011;1736;52.068;6.968;2023-04-25T12:26:51;3.30;;;2.20;;
3443;SDS011;1736;52.068;6.968;2023-04-25T12:29:20;2.30;;;1.40;;
3443;SDS011;1736;52.068;6.968;2023-04-25T12:31:47;2.17;;;1.60;;
3443;SDS011;1736;52.068;6.968;2023-04-25T12:34:14;3.57;;;2.40;;
3443;SDS011;1736;52.068;6.968;2023-04-25T12:36:41;4.93;;;2.20;;
3443;SDS011;1736;52.068;6.968;2023-04-25T12:39:08;3.23;;;1.40;;
3443;SDS011;1736;52.068;6.968;2023-04-25T12:41:36;3.43;;;1.53;;
3443;SDS011;1736;52.068;6.968;2023-04-25T12:44:03;8.30;;;4.60;;
3443;SDS011;1736;52.068;6.968;2023-04-25T12:46:29;7.67;;;3.60;;
3443;SDS011;1736;52.068;6.968;2023-04-25T12:48:56;4.03;;;1.80;;
3443;SDS011;1736;52.068;6.968;2023-04-25T12:51:22;4.03;;;1.70;;
3443;SDS011;1736;52.068;6.968;2023-04-25T12:53:50;5.27;;;1.80;;
3443;SDS011;1736;52.068;6.968;2023-04-25T12:56:17;3.37;;;1.93;;
3443;SDS011;1736;52.068;6.968;2023-04-25T12:58:45;4.40;;;1.80;;
3443;SDS011;1736;52.068;6.968;2023-04-25T13:01:13;2.73;;;1.60;;
3443;SDS011;1736;52.068;6.968;2023-04-25T13:03:40;5.00;;;2.10;;
3443;SDS011;1736;52.068;6.968;2023-04-25T13:06:06;6.93;;;1.70;;
3443;SDS011;1736;52.068;6.968;2023-04-25T13:08:33;2.60;;;1.67;;
3443;SDS011;1736;52.068;6.968;2023-04-25T13:11:01;1.90;;;1.60;;
3443;SDS011;1736;52.068;6.968;2023-04-25T13:13:28;1.63;;;1.33;;
3443;SDS011;1736;52.068;6.968;2023-04-25T13:15:56;2.47;;;1.47;;
3443;SDS011;1736;52.068;6.968;2023-04-25T13:18:22;9.77;;;1.90;;
3443;SDS011;1736;52.068;6.968;2023-04-25T13:20:51;6.20;;;1.57;;
3443;SDS011;1736;52.068;6.968;2023-04-25T13:23:17;3.80;;;1.90;;
3443;SDS011;1736;52.068;6.968;2023-04-25T13:25:45;2.27;;;1.97;;
3443;SDS011;1736;52.068;6.968;2023-04-25T13:28:11;6.13;;;1.90;;
3443;SDS011;1736;52.068;6.968;2023-04-25T13:30:38;7.17;;;1.80;;
3443;SDS011;1736;52.068;6.968;2023-04-25T13:33:06;3.60;;;2.00;;
3443;SDS011;1736;52.068;6.968;2023-04-25T13:35:33;6.30;;;1.97;;
3443;SDS011;1736;52.068;6.968;2023-04-25T13:38:00;5.60;;;1.80;;
3443;SDS011;1736;52.068;6.968;2023-04-25T13:40:27;7.37;;;1.70;;
3443;SDS011;1736;52.068;6.968;2023-04-25T13:42:53;7.13;;;1.90;;
3443;SDS011;1736;52.068;6.968;2023-04-25T13:45:21;3.10;;;1.50;;
3443;SDS011;1736;52.068;6.968;2023-04-25T13:47:47;1.83;;;1.73;;
3443;SDS011;1736;52.068;6.968;2023-04-25T13:50:15;2.73;;;1.80;;
3443;SDS011;1736;52.068;6.968;2023-04-25T13:52:41;3.17;;;1.87;;
3443;SDS011;1736;52.068;6.968;2023-04-25T13:55:08;4.30;;;1.47;;
3443;SDS011;1736;52.068;6.968;2023-04-25T13:57:35;2.17;;;1.97;;
3443;SDS011;1736;52.068;6.968;2023-04-25T14:00:03;2.10;;;1.70;;
3443;SDS011;1736;52.068;6.968;2023-04-25T14:02:33;3.10;;;1.87;;
3443;SDS011;1736;52.068;6.968;2023-04-25T14:05:00;1.93;;;1.57;;
3443;SDS011;1736;52.068;6.968;2023-04-25T14:07:28;3.20;;;1.50;;
3443;SDS011;1736;52.068;6.968;2023-04-25T14:09:55;2.63;;;1.40;;
3443;SDS011;1736;52.068;6.968;2023-04-25T14:12:22;2.27;;;2.07;;
3443;SDS011;1736;52.068;6.968;2023-04-25T14:14:48;5.50;;;2.50;;
3443;SDS011;1736;52.068;6.968;2023-04-25T14:17:15;2.80;;;1.77;;
3443;SDS011;1736;52.068;6.968;2023-04-25T14:19:41;4.60;;;1.80;;
3443;SDS011;1736;52.068;6.968;2023-04-25T14:22:10;7.23;;;1.80;;
3443;SDS011;1736;52.068;6.968;2023-04-25T14:24:38;1.60;;;1.50;;
3443;SDS011;1736;52.068;6.968;2023-04-25T14:27:05;3.90;;;1.40;;
3443;SDS011;1736;52.068;6.968;2023-04-25T14:29:31;2.47;;;1.50;;
3443;SDS011;1736;52.068;6.968;2023-04-25T14:31:58;1.50;;;1.40;;
3443;SDS011;1736;52.068;6.968;2023-04-25T14:34:25;6.73;;;1.53;;
3443;SDS011;1736;52.068;6.968;2023-04-25T14:36:51;4.47;;;1.40;;
3443;SDS011;1736;52.068;6.968;2023-04-25T14:39:18;4.77;;;1.23;;
3443;SDS011;1736;52.068;6.968;2023-04-25T14:41:46;4.03;;;1.77;;
3443;SDS011;1736;52.068;6.968;2023-04-25T14:44:12;4.57;;;1.83;;
3443;SDS011;1736;52.068;6.968;2023-04-25T14:46:40;5.13;;;1.70;;
3443;SDS011;1736;52.068;6.968;2023-04-25T14:49:06;5.00;;;1.90;;
3443;SDS011;1736;52.068;6.968;2023-04-25T14:51:33;4.40;;;1.70;;
3443;SDS011;1736;52.068;6.968;2023-04-25T14:53:59;3.70;;;1.40;;
3443;SDS011;1736;52.068;6.968;2023-04-25T14:56:26;5.00;;;1.63;;
3443;SDS011;1736;52.068;6.968;2023-04-25T14:58:54;1.67;;;1.40;;
3443;SDS011;1736;52.068;6.968;2023-04-25T15:01:21;1.73;;;1.50;;
3443;SDS011;1736;52.068;6.968;2023-04-25T15:03:47;2.87;;;1.57;;
3443;SDS011;1736;52.068;6.968;2023-04-25T15:06:14;1.83;;;1.30;;
3443;SDS011;1736;52.068;6.968;2023-04-25T15:08:41;1.57;;;1.30;;
3443;SDS011;1736;52.068;6.968;2023-04-25T15:11:07;1.53;;;1.37;;
3443;SDS011;1736;52.068;6.968;2023-04-25T15:13:35;3.33;;;1.23;;